sensor_id;sensor_type;location;lat;lon;timestamp;temperature;humidity
12152;DHT22;6139;51.274;7.128;2022-08-19T00:00:47;19.40;97.10
12152;DHT22;6139;51.274;7.128;2022-08-19T00:01:52;19.40;84.80
12152;DHT22;6139;51.274;7.128;2022-08-19T00:02:54;19.40;88.40
12152;DHT22;6139;51.274;7.128;2022-08-19T00:03:57;19.40;97.50
12152;DHT22;6139;51.274;7.128;2022-08-19T00:04:58;19.40;99.90
12152;DHT22;6139;51.274;7.128;2022-08-19T00:06:00;19.40;99.90
12152;DHT22;6139;51.274;7.128;2022-08-19T00:07:01;19.40;99.90
12152;DHT22;6139;51.274;7.128;2022-08-19T00:08:03;19.40;99.90
12152;DHT22;6139;51.274;7.128;2022-08-19T00:09:06;19.40;99.90
12152;DHT22;6139;51.274;7.128;2022-08-19T00:10:10;19.50;94.80
12152;DHT22;6139;51.274;7.128;2022-08-19T00:11:12;19.40;99.90
12152;DHT22;6139;51.274;7.128;2022-08-19T00:12:14;19.30;99.90
12152;DHT22;6139;51.274;7.128;2022-08-19T00:13:15;19.30;99.90
12152;DHT22;6139;51.274;7.128;2022-08-19T00:14:19;19.30;99.90
12152;DHT22;6139;51.274;7.128;2022-08-19T00:15:21;19.30;99.90
12152;DHT22;6139;51.274;7.128;2022-08-19T00:16:25;19.20;99.90
12152;DHT22;6139;51.274;7.128;2022-08-19T00:17:26;19.30;99.90
12152;DHT22;6139;51.274;7.128;2022-08-19T00:18:28;19.30;99.90
12152;DHT22;6139;51.274;7.128;2022-08-19T00:19:30;19.30;99.90
12152;DHT22;6139;51.274;7.128;2022-08-19T00:20:32;19.30;99.90
12152;DHT22;6139;51.274;7.128;2022-08-19T00:21:33;19.30;99.90
12152;DHT22;6139;51.274;7.128;2022-08-19T00:22:40;19.20;99.90
12152;DHT22;6139;51.274;7.128;2022-08-19T00:23:42;19.20;99.90
12152;DHT22;6139;51.274;7.128;2022-08-19T00:24:44;19.20;99.90
12152;DHT22;6139;51.274;7.128;2022-08-19T00:25:46;19.20;99.90
12152;DHT22;6139;51.274;7.128;2022-08-19T00:26:48;19.10;99.90
12152;DHT22;6139;51.274;7.128;2022-08-19T00:27:49;19.10;99.90
12152;DHT22;6139;51.274;7.128;2022-08-19T00:28:51;19.10;99.90
12152;DHT22;6139;51.274;7.128;2022-08-19T00:29:52;19.10;99.90
12152;DHT22;6139;51.274;7.128;2022-08-19T00:30:54;19.10;99.90
12152;DHT22;6139;51.274;7.128;2022-08-19T00:31:57;19.00;99.90
12152;DHT22;6139;51.274;7.128;2022-08-19T00:33:00;19.00;99.90
12152;DHT22;6139;51.274;7.128;2022-08-19T00:34:01;19.00;99.90
12152;DHT22;6139;51.274;7.128;2022-08-19T00:35:04;18.90;99.90
12152;DHT22;6139;51.274;7.128;2022-08-19T00:36:07;19.00;99.90
12152;DHT22;6139;51.274;7.128;2022-08-19T00:37:10;19.00;99.90
12152;DHT22;6139;51.274;7.128;2022-08-19T00:38:11;19.00;99.90
12152;DHT22;6139;51.274;7.128;2022-08-19T00:39:15;19.00;99.90
12152;DHT22;6139;51.274;7.128;2022-08-19T00:40:17;19.00;99.90
12152;DHT22;6139;51.274;7.128;2022-08-19T00:41:23;19.10;99.90
12152;DHT22;6139;51.274;7.128;2022-08-19T00:42:24;19.10;99.90
12152;DHT22;6139;51.274;7.128;2022-08-19T00:43:28;19.10;99.90
12152;DHT22;6139;51.274;7.128;2022-08-19T00:44:29;19.10;99.90
12152;DHT22;6139;51.274;7.128;2022-08-19T00:45:32;19.20;99.90
12152;DHT22;6139;51.274;7.128;2022-08-19T00:46:37;19.10;99.90
12152;DHT22;6139;51.274;7.128;2022-08-19T00:47:41;19.10;99.90
12152;DHT22;6139;51.274;7.128;2022-08-19T00:48:41;19.10;99.90
12152;DHT22;6139;51.274;7.128;2022-08-19T00:49:46;19.10;99.90
12152;DHT22;6139;51.274;7.128;2022-08-19T00:50:52;19.10;99.90
12152;DHT22;6139;51.274;7.128;2022-08-19T00:52:02;19.10;99.90
12152;DHT22;6139;51.274;7.128;2022-08-19T00:53:03;19.10;99.90
12152;DHT22;6139;51.274;7.128;2022-08-19T00:54:06;19.00;99.90
12152;DHT22;6139;51.274;7.128;2022-08-19T00:55:08;19.00;99.90
12152;DHT22;6139;51.274;7.128;2022-08-19T00:56:12;19.00;99.90
12152;DHT22;6139;51.274;7.128;2022-08-19T00:57:17;18.90;99.90
12152;DHT22;6139;51.274;7.128;2022-08-19T00:58:23;18.80;99.90
12152;DHT22;6139;51.274;7.128;2022-08-19T00:59:25;18.80;99.90
12152;DHT22;6139;51.274;7.128;2022-08-19T01:00:30;18.80;99.90
12152;DHT22;6139;51.274;7.128;2022-08-19T01:01:31;18.80;99.90
12152;DHT22;6139;51.274;7.128;2022-08-19T01:02:33;18.70;99.90
12152;DHT22;6139;51.274;7.128;2022-08-19T01:03:36;18.70;99.90
12152;DHT22;6139;51.274;7.128;2022-08-19T01:04:38;18.70;99.90
12152;DHT22;6139;51.274;7.128;2022-08-19T01:05:42;18.70;99.90
12152;DHT22;6139;51.274;7.128;2022-08-19T01:06:44;18.70;99.90
12152;DHT22;6139;51.274;7.128;2022-08-19T01:07:45;18.70;99.90
12152;DHT22;6139;51.274;7.128;2022-08-19T01:08:48;18.70;99.90
12152;DHT22;6139;51.274;7.128;2022-08-19T01:09:50;18.70;99.90
12152;DHT22;6139;51.274;7.128;2022-08-19T01:10:54;18.70;99.90
12152;DHT22;6139;51.274;7.128;2022-08-19T01:11:57;18.80;99.90
12152;DHT22;6139;51.274;7.128;2022-08-19T01:13:00;18.80;99.90
12152;DHT22;6139;51.274;7.128;2022-08-19T01:14:02;18.70;99.90
12152;DHT22;6139;51.274;7.128;2022-08-19T01:15:06;18.70;99.90
12152;DHT22;6139;51.274;7.128;2022-08-19T01:16:10;18.70;99.90
12152;DHT22;6139;51.274;7.128;2022-08-19T01:17:12;18.70;99.90
12152;DHT22;6139;51.274;7.128;2022-08-19T01:18:15;18.70;99.90
12152;DHT22;6139;51.274;7.128;2022-08-19T01:19:25;18.70;99.90
12152;DHT22;6139;51.274;7.128;2022-08-19T01:20:28;18.70;99.90
12152;DHT22;6139;51.274;7.128;2022-08-19T01:21:32;18.70;99.90
12152;DHT22;6139;51.274;7.128;2022-08-19T01:22:42;18.70;99.90
12152;DHT22;6139;51.274;7.128;2022-08-19T01:23:45;18.70;99.90
12152;DHT22;6139;51.274;7.128;2022-08-19T01:24:46;18.70;99.90
12152;DHT22;6139;51.274;7.128;2022-08-19T01:25:50;18.60;99.90
12152;DHT22;6139;51.274;7.128;2022-08-19T01:26:51;18.60;99.90
12152;DHT22;6139;51.274;7.128;2022-08-19T01:27:53;18.60;99.90
12152;DHT22;6139;51.274;7.128;2022-08-19T01:28:57;18.60;99.90
12152;DHT22;6139;51.274;7.128;2022-08-19T01:30:00;18.60;99.90
12152;DHT22;6139;51.274;7.128;2022-08-19T01:31:01;18.50;99.90
12152;DHT22;6139;51.274;7.128;2022-08-19T01:32:04;18.50;99.90
12152;DHT22;6139;51.274;7.128;2022-08-19T01:33:05;18.50;99.90
12152;DHT22;6139;51.274;7.128;2022-08-19T01:34:08;18.50;99.90
12152;DHT22;6139;51.274;7.128;2022-08-19T01:35:14;18.50;99.90
12152;DHT22;6139;51.274;7.128;2022-08-19T01:36:24;18.50;99.90
12152;DHT22;6139;51.274;7.128;2022-08-19T01:37:26;18.50;99.90
12152;DHT22;6139;51.274;7.128;2022-08-19T01:38:30;18.50;99.90
12152;DHT22;6139;51.274;7.128;2022-08-19T01:39:32;18.50;99.90
12152;DHT22;6139;51.274;7.128;2022-08-19T01:40:37;18.50;99.90
12152;DHT22;6139;51.274;7.128;2022-08-19T01:41:38;18.50;99.90
12152;DHT22;6139;51.274;7.128;2022-08-19T01:42:41;18.40;99.90
12152;DHT22;6139;51.274;7.128;2022-08-19T01:43:42;18.50;99.90
12152;DHT22;6139;51.274;7.128;2022-08-19T01:44:44;18.40;99.90
12152;DHT22;6139;51.274;7.128;2022-08-19T01:45:46;18.40;99.90
12152;DHT22;6139;51.274;7.128;2022-08-19T01:46:48;18.40;99.90
12152;DHT22;6139;51.274;7.128;2022-08-19T01:47:50;18.30;99.90
12152;DHT22;6139;51.274;7.128;2022-08-19T01:48:52;18.30;99.90
12152;DHT22;6139;51.274;7.128;2022-08-19T01:49:53;18.30;99.90
12152;DHT22;6139;51.274;7.128;2022-08-19T01:50:55;18.30;99.90
12152;DHT22;6139;51.274;7.128;2022-08-19T01:51:57;18.30;99.90
12152;DHT22;6139;51.274;7.128;2022-08-19T01:53:02;18.30;99.90
12152;DHT22;6139;51.274;7.128;2022-08-19T01:54:06;18.30;99.90
12152;DHT22;6139;51.274;7.128;2022-08-19T01:55:10;18.30;99.90
12152;DHT22;6139;51.274;7.128;2022-08-19T01:56:13;18.30;99.90
12152;DHT22;6139;51.274;7.128;2022-08-19T01:57:15;18.30;99.90
12152;DHT22;6139;51.274;7.128;2022-08-19T01:58:21;18.30;99.90
12152;DHT22;6139;51.274;7.128;2022-08-19T01:59:25;18.30;99.90
12152;DHT22;6139;51.274;7.128;2022-08-19T02:00:28;18.20;99.90
12152;DHT22;6139;51.274;7.128;2022-08-19T02:01:31;18.30;99.90
12152;DHT22;6139;51.274;7.128;2022-08-19T02:02:33;18.20;99.90
12152;DHT22;6139;51.274;7.128;2022-08-19T02:03:35;18.20;99.90
12152;DHT22;6139;51.274;7.128;2022-08-19T02:04:37;18.30;99.90
12152;DHT22;6139;51.274;7.128;2022-08-19T02:05:42;18.20;99.90
12152;DHT22;6139;51.274;7.128;2022-08-19T02:06:44;18.20;99.90
12152;DHT22;6139;51.274;7.128;2022-08-19T02:07:47;18.20;99.90
12152;DHT22;6139;51.274;7.128;2022-08-19T02:08:48;18.20;99.90
12152;DHT22;6139;51.274;7.128;2022-08-19T02:09:52;18.20;99.90
12152;DHT22;6139;51.274;7.128;2022-08-19T02:10:53;18.20;99.90
12152;DHT22;6139;51.274;7.128;2022-08-19T02:11:56;18.30;99.90
12152;DHT22;6139;51.274;7.128;2022-08-19T02:12:57;18.30;99.90
12152;DHT22;6139;51.274;7.128;2022-08-19T02:13:59;18.30;99.90
12152;DHT22;6139;51.274;7.128;2022-08-19T02:15:01;18.30;99.90
12152;DHT22;6139;51.274;7.128;2022-08-19T02:16:03;18.30;99.90
12152;DHT22;6139;51.274;7.128;2022-08-19T02:17:04;18.30;99.90
12152;DHT22;6139;51.274;7.128;2022-08-19T02:18:06;18.30;99.90
12152;DHT22;6139;51.274;7.128;2022-08-19T02:19:08;18.30;99.90
12152;DHT22;6139;51.274;7.128;2022-08-19T02:20:12;18.30;99.90
12152;DHT22;6139;51.274;7.128;2022-08-19T02:21:13;18.30;99.90
12152;DHT22;6139;51.274;7.128;2022-08-19T02:22:16;18.30;99.90
12152;DHT22;6139;51.274;7.128;2022-08-19T02:23:17;18.30;99.90
12152;DHT22;6139;51.274;7.128;2022-08-19T02:24:19;18.30;99.90
12152;DHT22;6139;51.274;7.128;2022-08-19T02:25:21;18.30;99.90
12152;DHT22;6139;51.274;7.128;2022-08-19T02:26:24;18.30;99.90
12152;DHT22;6139;51.274;7.128;2022-08-19T02:27:27;18.30;99.90
12152;DHT22;6139;51.274;7.128;2022-08-19T02:28:31;18.40;99.90
12152;DHT22;6139;51.274;7.128;2022-08-19T02:29:33;18.30;99.90
12152;DHT22;6139;51.274;7.128;2022-08-19T02:30:35;18.30;99.90
12152;DHT22;6139;51.274;7.128;2022-08-19T02:31:36;18.30;99.90
12152;DHT22;6139;51.274;7.128;2022-08-19T02:32:38;18.20;99.90
12152;DHT22;6139;51.274;7.128;2022-08-19T02:33:39;18.20;99.90
12152;DHT22;6139;51.274;7.128;2022-08-19T02:34:42;18.20;99.90
12152;DHT22;6139;51.274;7.128;2022-08-19T02:35:43;18.20;99.90
12152;DHT22;6139;51.274;7.128;2022-08-19T02:36:45;18.20;99.90
12152;DHT22;6139;51.274;7.128;2022-08-19T02:37:47;18.20;99.90
12152;DHT22;6139;51.274;7.128;2022-08-19T02:39:06;18.20;99.90
12152;DHT22;6139;51.274;7.128;2022-08-19T02:40:10;18.10;99.90
12152;DHT22;6139;51.274;7.128;2022-08-19T02:41:14;18.20;99.90
12152;DHT22;6139;51.274;7.128;2022-08-19T02:42:16;18.10;99.90
12152;DHT22;6139;51.274;7.128;2022-08-19T02:43:18;18.10;99.90
12152;DHT22;6139;51.274;7.128;2022-08-19T02:44:21;18.10;99.90
12152;DHT22;6139;51.274;7.128;2022-08-19T02:45:23;18.10;99.90
12152;DHT22;6139;51.274;7.128;2022-08-19T02:46:26;18.10;99.90
12152;DHT22;6139;51.274;7.128;2022-08-19T02:47:29;18.10;99.90
12152;DHT22;6139;51.274;7.128;2022-08-19T02:48:30;18.10;99.90
12152;DHT22;6139;51.274;7.128;2022-08-19T02:49:33;18.10;99.90
12152;DHT22;6139;51.274;7.128;2022-08-19T02:50:37;18.10;99.90
12152;DHT22;6139;51.274;7.128;2022-08-19T02:51:41;18.10;99.90
12152;DHT22;6139;51.274;7.128;2022-08-19T02:52:44;18.00;99.90
12152;DHT22;6139;51.274;7.128;2022-08-19T02:53:46;18.00;99.90
12152;DHT22;6139;51.274;7.128;2022-08-19T02:54:48;18.10;99.90
12152;DHT22;6139;51.274;7.128;2022-08-19T02:55:51;18.00;99.90
12152;DHT22;6139;51.274;7.128;2022-08-19T02:56:54;18.00;99.90
12152;DHT22;6139;51.274;7.128;2022-08-19T02:57:56;18.00;99.90
12152;DHT22;6139;51.274;7.128;2022-08-19T02:58:58;18.00;99.90
12152;DHT22;6139;51.274;7.128;2022-08-19T03:00:00;18.00;99.90
12152;DHT22;6139;51.274;7.128;2022-08-19T03:01:02;18.00;99.90
12152;DHT22;6139;51.274;7.128;2022-08-19T03:02:04;18.00;99.90
12152;DHT22;6139;51.274;7.128;2022-08-19T03:03:05;17.90;99.90
12152;DHT22;6139;51.274;7.128;2022-08-19T03:04:08;17.90;99.90
12152;DHT22;6139;51.274;7.128;2022-08-19T03:05:10;17.90;99.90
12152;DHT22;6139;51.274;7.128;2022-08-19T03:06:14;17.90;99.90
12152;DHT22;6139;51.274;7.128;2022-08-19T03:07:17;17.90;99.90
12152;DHT22;6139;51.274;7.128;2022-08-19T03:08:20;17.90;99.90
12152;DHT22;6139;51.274;7.128;2022-08-19T03:09:21;17.90;99.90
12152;DHT22;6139;51.274;7.128;2022-08-19T03:10:23;17.90;99.90
12152;DHT22;6139;51.274;7.128;2022-08-19T03:11:26;17.80;99.90
12152;DHT22;6139;51.274;7.128;2022-08-19T03:12:30;17.80;99.90
12152;DHT22;6139;51.274;7.128;2022-08-19T03:13:31;17.80;99.90
12152;DHT22;6139;51.274;7.128;2022-08-19T03:14:34;17.80;99.90
12152;DHT22;6139;51.274;7.128;2022-08-19T03:15:39;17.80;99.90
12152;DHT22;6139;51.274;7.128;2022-08-19T03:16:44;17.90;99.90
12152;DHT22;6139;51.274;7.128;2022-08-19T03:17:45;17.90;99.90
12152;DHT22;6139;51.274;7.128;2022-08-19T03:18:47;17.90;99.90
12152;DHT22;6139;51.274;7.128;2022-08-19T03:19:49;17.90;99.90
12152;DHT22;6139;51.274;7.128;2022-08-19T03:20:52;17.90;99.90
12152;DHT22;6139;51.274;7.128;2022-08-19T03:21:55;17.90;99.90
12152;DHT22;6139;51.274;7.128;2022-08-19T03:22:57;17.90;99.90
12152;DHT22;6139;51.274;7.128;2022-08-19T03:24:00;17.80;99.90
12152;DHT22;6139;51.274;7.128;2022-08-19T03:25:04;17.90;99.90
12152;DHT22;6139;51.274;7.128;2022-08-19T03:26:05;17.90;99.90
12152;DHT22;6139;51.274;7.128;2022-08-19T03:27:07;17.90;99.90
12152;DHT22;6139;51.274;7.128;2022-08-19T03:28:11;17.90;99.90
12152;DHT22;6139;51.274;7.128;2022-08-19T03:29:14;17.90;99.90
12152;DHT22;6139;51.274;7.128;2022-08-19T03:30:16;17.90;99.90
12152;DHT22;6139;51.274;7.128;2022-08-19T03:31:20;17.90;99.90
12152;DHT22;6139;51.274;7.128;2022-08-19T03:32:22;18.00;99.90
12152;DHT22;6139;51.274;7.128;2022-08-19T03:33:25;18.00;99.90
12152;DHT22;6139;51.274;7.128;2022-08-19T03:34:28;18.00;99.90
12152;DHT22;6139;51.274;7.128;2022-08-19T03:35:30;18.00;99.90
12152;DHT22;6139;51.274;7.128;2022-08-19T03:36:31;18.00;99.90
12152;DHT22;6139;51.274;7.128;2022-08-19T03:37:33;18.00;99.90
12152;DHT22;6139;51.274;7.128;2022-08-19T03:38:39;18.00;99.90
12152;DHT22;6139;51.274;7.128;2022-08-19T03:39:41;18.00;99.90
12152;DHT22;6139;51.274;7.128;2022-08-19T03:40:43;18.00;99.90
12152;DHT22;6139;51.274;7.128;2022-08-19T03:41:47;18.00;99.90
12152;DHT22;6139;51.274;7.128;2022-08-19T03:42:50;17.90;99.90
12152;DHT22;6139;51.274;7.128;2022-08-19T03:43:54;17.90;99.90
12152;DHT22;6139;51.274;7.128;2022-08-19T03:44:55;17.90;99.90
12152;DHT22;6139;51.274;7.128;2022-08-19T03:46:02;17.90;99.90
12152;DHT22;6139;51.274;7.128;2022-08-19T03:47:05;17.90;99.90
12152;DHT22;6139;51.274;7.128;2022-08-19T03:48:08;17.90;99.90
12152;DHT22;6139;51.274;7.128;2022-08-19T03:49:10;17.90;99.90
12152;DHT22;6139;51.274;7.128;2022-08-19T03:50:12;17.80;99.90
12152;DHT22;6139;51.274;7.128;2022-08-19T03:51:16;17.90;99.90
12152;DHT22;6139;51.274;7.128;2022-08-19T03:52:19;17.90;99.90
12152;DHT22;6139;51.274;7.128;2022-08-19T03:53:20;17.90;99.90
12152;DHT22;6139;51.274;7.128;2022-08-19T03:54:24;17.90;99.90
12152;DHT22;6139;51.274;7.128;2022-08-19T03:55:25;17.90;99.90
12152;DHT22;6139;51.274;7.128;2022-08-19T03:56:28;17.80;99.90
12152;DHT22;6139;51.274;7.128;2022-08-19T03:57:29;17.80;99.90
12152;DHT22;6139;51.274;7.128;2022-08-19T03:58:31;17.80;99.90
12152;DHT22;6139;51.274;7.128;2022-08-19T03:59:35;17.80;99.90
12152;DHT22;6139;51.274;7.128;2022-08-19T04:00:41;17.80;99.90
12152;DHT22;6139;51.274;7.128;2022-08-19T04:01:42;17.80;99.90
12152;DHT22;6139;51.274;7.128;2022-08-19T04:02:44;17.80;99.90
12152;DHT22;6139;51.274;7.128;2022-08-19T04:03:46;17.80;99.90
12152;DHT22;6139;51.274;7.128;2022-08-19T04:04:48;17.80;99.90
12152;DHT22;6139;51.274;7.128;2022-08-19T04:05:49;17.80;99.90
12152;DHT22;6139;51.274;7.128;2022-08-19T04:06:52;17.80;99.90
12152;DHT22;6139;51.274;7.128;2022-08-19T04:07:53;17.80;99.90
12152;DHT22;6139;51.274;7.128;2022-08-19T04:09:00;17.70;99.90
12152;DHT22;6139;51.274;7.128;2022-08-19T04:10:03;17.80;99.90
12152;DHT22;6139;51.274;7.128;2022-08-19T04:11:07;17.70;99.90
12152;DHT22;6139;51.274;7.128;2022-08-19T04:12:08;17.70;99.90
12152;DHT22;6139;51.274;7.128;2022-08-19T04:13:10;17.70;99.90
12152;DHT22;6139;51.274;7.128;2022-08-19T04:14:14;17.70;99.90
12152;DHT22;6139;51.274;7.128;2022-08-19T04:15:17;17.70;99.90
12152;DHT22;6139;51.274;7.128;2022-08-19T04:16:22;17.70;99.90
12152;DHT22;6139;51.274;7.128;2022-08-19T04:17:23;17.70;99.90
12152;DHT22;6139;51.274;7.128;2022-08-19T04:18:26;17.70;99.90
12152;DHT22;6139;51.274;7.128;2022-08-19T04:19:31;17.70;99.90
12152;DHT22;6139;51.274;7.128;2022-08-19T04:20:38;17.60;99.90
12152;DHT22;6139;51.274;7.128;2022-08-19T04:21:40;17.60;99.90
12152;DHT22;6139;51.274;7.128;2022-08-19T04:22:44;17.60;99.90
12152;DHT22;6139;51.274;7.128;2022-08-19T04:23:45;17.70;99.90
12152;DHT22;6139;51.274;7.128;2022-08-19T04:24:47;17.70;99.90
12152;DHT22;6139;51.274;7.128;2022-08-19T04:25:49;17.70;99.90
12152;DHT22;6139;51.274;7.128;2022-08-19T04:26:51;17.70;99.90
12152;DHT22;6139;51.274;7.128;2022-08-19T04:27:53;17.70;99.90
12152;DHT22;6139;51.274;7.128;2022-08-19T04:28:55;17.70;99.90
12152;DHT22;6139;51.274;7.128;2022-08-19T04:29:57;17.70;99.90
12152;DHT22;6139;51.274;7.128;2022-08-19T04:31:00;17.70;99.90
12152;DHT22;6139;51.274;7.128;2022-08-19T04:32:02;17.70;99.90
12152;DHT22;6139;51.274;7.128;2022-08-19T04:33:04;17.70;99.90
12152;DHT22;6139;51.274;7.128;2022-08-19T04:34:08;17.70;99.90
12152;DHT22;6139;51.274;7.128;2022-08-19T04:35:11;17.70;99.90
12152;DHT22;6139;51.274;7.128;2022-08-19T04:36:16;17.70;99.90
12152;DHT22;6139;51.274;7.128;2022-08-19T04:37:20;17.70;99.90
12152;DHT22;6139;51.274;7.128;2022-08-19T04:38:22;17.70;99.90
12152;DHT22;6139;51.274;7.128;2022-08-19T04:39:25;17.80;99.90
12152;DHT22;6139;51.274;7.128;2022-08-19T04:40:49;17.80;99.90
12152;DHT22;6139;51.274;7.128;2022-08-19T04:42:09;17.80;99.90
12152;DHT22;6139;51.274;7.128;2022-08-19T04:43:29;17.80;99.90
12152;DHT22;6139;51.274;7.128;2022-08-19T04:44:31;17.80;99.90
12152;DHT22;6139;51.274;7.128;2022-08-19T04:45:36;17.80;99.90
12152;DHT22;6139;51.274;7.128;2022-08-19T04:46:38;17.80;99.90
12152;DHT22;6139;51.274;7.128;2022-08-19T04:47:42;17.80;99.90
12152;DHT22;6139;51.274;7.128;2022-08-19T04:48:44;17.80;99.90
12152;DHT22;6139;51.274;7.128;2022-08-19T04:49:46;17.70;99.90
12152;DHT22;6139;51.274;7.128;2022-08-19T04:50:48;17.70;99.90
12152;DHT22;6139;51.274;7.128;2022-08-19T04:51:51;17.70;99.90
12152;DHT22;6139;51.274;7.128;2022-08-19T04:52:54;17.70;99.90
12152;DHT22;6139;51.274;7.128;2022-08-19T04:53:57;17.70;99.90
12152;DHT22;6139;51.274;7.128;2022-08-19T04:55:00;17.70;99.90
12152;DHT22;6139;51.274;7.128;2022-08-19T04:56:05;17.70;99.90
12152;DHT22;6139;51.274;7.128;2022-08-19T04:57:09;17.70;99.90
12152;DHT22;6139;51.274;7.128;2022-08-19T04:58:10;17.70;99.90
12152;DHT22;6139;51.274;7.128;2022-08-19T04:59:12;17.70;99.90
12152;DHT22;6139;51.274;7.128;2022-08-19T05:00:15;17.70;99.90
12152;DHT22;6139;51.274;7.128;2022-08-19T05:01:18;17.70;99.90
12152;DHT22;6139;51.274;7.128;2022-08-19T05:02:21;17.70;99.90
12152;DHT22;6139;51.274;7.128;2022-08-19T05:03:26;17.70;99.90
12152;DHT22;6139;51.274;7.128;2022-08-19T05:04:27;17.70;99.90
12152;DHT22;6139;51.274;7.128;2022-08-19T05:05:32;17.70;99.90
12152;DHT22;6139;51.274;7.128;2022-08-19T05:06:35;17.70;99.90
12152;DHT22;6139;51.274;7.128;2022-08-19T05:07:38;17.70;99.90
12152;DHT22;6139;51.274;7.128;2022-08-19T05:08:42;17.70;99.90
12152;DHT22;6139;51.274;7.128;2022-08-19T05:09:44;17.70;99.90
12152;DHT22;6139;51.274;7.128;2022-08-19T05:10:46;17.70;99.90
12152;DHT22;6139;51.274;7.128;2022-08-19T05:11:48;17.80;99.90
12152;DHT22;6139;51.274;7.128;2022-08-19T05:12:53;17.80;99.90
12152;DHT22;6139;51.274;7.128;2022-08-19T05:13:55;17.80;99.90
12152;DHT22;6139;51.274;7.128;2022-08-19T05:14:58;17.80;99.90
12152;DHT22;6139;51.274;7.128;2022-08-19T05:15:59;17.80;99.90
12152;DHT22;6139;51.274;7.128;2022-08-19T05:17:01;17.80;99.90
12152;DHT22;6139;51.274;7.128;2022-08-19T05:18:04;17.80;99.90
12152;DHT22;6139;51.274;7.128;2022-08-19T05:19:23;17.90;99.90
12152;DHT22;6139;51.274;7.128;2022-08-19T05:20:43;17.90;99.90
12152;DHT22;6139;51.274;7.128;2022-08-19T05:22:03;17.80;99.90
12152;DHT22;6139;51.274;7.128;2022-08-19T05:23:22;17.80;99.90
12152;DHT22;6139;51.274;7.128;2022-08-19T05:24:25;17.80;99.90
12152;DHT22;6139;51.274;7.128;2022-08-19T05:25:26;17.80;99.90
12152;DHT22;6139;51.274;7.128;2022-08-19T05:26:28;17.90;99.90
12152;DHT22;6139;51.274;7.128;2022-08-19T05:27:29;17.80;99.90
12152;DHT22;6139;51.274;7.128;2022-08-19T05:28:32;17.80;99.90
12152;DHT22;6139;51.274;7.128;2022-08-19T05:29:35;17.80;99.90
12152;DHT22;6139;51.274;7.128;2022-08-19T05:30:36;17.80;99.90
12152;DHT22;6139;51.274;7.128;2022-08-19T05:31:38;17.80;99.90
12152;DHT22;6139;51.274;7.128;2022-08-19T05:32:39;17.80;99.90
12152;DHT22;6139;51.274;7.128;2022-08-19T05:33:43;17.90;99.90
12152;DHT22;6139;51.274;7.128;2022-08-19T05:34:44;17.90;99.90
12152;DHT22;6139;51.274;7.128;2022-08-19T05:35:46;17.90;99.90
12152;DHT22;6139;51.274;7.128;2022-08-19T05:36:50;17.90;99.90
12152;DHT22;6139;51.274;7.128;2022-08-19T05:37:57;17.90;99.90
12152;DHT22;6139;51.274;7.128;2022-08-19T05:38:58;17.90;99.90
12152;DHT22;6139;51.274;7.128;2022-08-19T05:40:00;17.90;99.90
12152;DHT22;6139;51.274;7.128;2022-08-19T05:41:06;17.90;99.90
12152;DHT22;6139;51.274;7.128;2022-08-19T05:42:10;17.90;99.90
12152;DHT22;6139;51.274;7.128;2022-08-19T05:43:12;17.90;99.90
12152;DHT22;6139;51.274;7.128;2022-08-19T05:44:16;17.90;99.90
12152;DHT22;6139;51.274;7.128;2022-08-19T05:45:18;17.90;99.90
12152;DHT22;6139;51.274;7.128;2022-08-19T05:46:21;18.00;99.90
12152;DHT22;6139;51.274;7.128;2022-08-19T05:47:23;18.00;99.90
12152;DHT22;6139;51.274;7.128;2022-08-19T05:48:24;18.00;99.90
12152;DHT22;6139;51.274;7.128;2022-08-19T05:49:28;18.00;99.90
12152;DHT22;6139;51.274;7.128;2022-08-19T05:50:31;18.00;99.90
12152;DHT22;6139;51.274;7.128;2022-08-19T05:51:32;18.10;99.90
12152;DHT22;6139;51.274;7.128;2022-08-19T05:52:36;18.10;99.90
12152;DHT22;6139;51.274;7.128;2022-08-19T05:53:39;18.10;99.90
12152;DHT22;6139;51.274;7.128;2022-08-19T05:54:41;18.10;99.90
12152;DHT22;6139;51.274;7.128;2022-08-19T05:55:43;18.20;99.90
12152;DHT22;6139;51.274;7.128;2022-08-19T05:56:44;18.20;99.90
12152;DHT22;6139;51.274;7.128;2022-08-19T05:57:48;18.20;99.90
12152;DHT22;6139;51.274;7.128;2022-08-19T05:58:49;18.20;99.90
12152;DHT22;6139;51.274;7.128;2022-08-19T05:59:51;18.20;99.90
12152;DHT22;6139;51.274;7.128;2022-08-19T06:00:54;18.30;99.90
12152;DHT22;6139;51.274;7.128;2022-08-19T06:01:56;18.20;99.90
12152;DHT22;6139;51.274;7.128;2022-08-19T06:02:57;18.20;99.90
12152;DHT22;6139;51.274;7.128;2022-08-19T06:04:04;18.30;99.90
12152;DHT22;6139;51.274;7.128;2022-08-19T06:05:07;18.30;99.90
12152;DHT22;6139;51.274;7.128;2022-08-19T06:06:12;18.30;99.90
12152;DHT22;6139;51.274;7.128;2022-08-19T06:07:13;18.30;99.90
12152;DHT22;6139;51.274;7.128;2022-08-19T06:08:16;18.30;99.90
12152;DHT22;6139;51.274;7.128;2022-08-19T06:09:19;18.30;99.90
12152;DHT22;6139;51.274;7.128;2022-08-19T06:10:22;18.30;99.90
12152;DHT22;6139;51.274;7.128;2022-08-19T06:11:32;18.30;99.90
12152;DHT22;6139;51.274;7.128;2022-08-19T06:12:34;18.30;99.90
12152;DHT22;6139;51.274;7.128;2022-08-19T06:13:36;18.40;99.90
12152;DHT22;6139;51.274;7.128;2022-08-19T06:14:37;18.40;99.90
12152;DHT22;6139;51.274;7.128;2022-08-19T06:15:42;18.40;99.90
12152;DHT22;6139;51.274;7.128;2022-08-19T06:16:45;18.40;99.90
12152;DHT22;6139;51.274;7.128;2022-08-19T06:17:47;18.40;99.90
12152;DHT22;6139;51.274;7.128;2022-08-19T06:18:50;18.40;99.90
12152;DHT22;6139;51.274;7.128;2022-08-19T06:19:53;18.50;99.90
12152;DHT22;6139;51.274;7.128;2022-08-19T06:20:56;18.50;99.90
12152;DHT22;6139;51.274;7.128;2022-08-19T06:21:59;18.50;99.90
12152;DHT22;6139;51.274;7.128;2022-08-19T06:23:01;18.60;99.90
12152;DHT22;6139;51.274;7.128;2022-08-19T06:24:03;18.60;99.90
12152;DHT22;6139;51.274;7.128;2022-08-19T06:25:06;18.60;99.90
12152;DHT22;6139;51.274;7.128;2022-08-19T06:26:11;18.70;99.90
12152;DHT22;6139;51.274;7.128;2022-08-19T06:27:13;18.70;99.90
12152;DHT22;6139;51.274;7.128;2022-08-19T06:28:16;18.70;99.90
12152;DHT22;6139;51.274;7.128;2022-08-19T06:29:20;18.80;99.90
12152;DHT22;6139;51.274;7.128;2022-08-19T06:30:23;18.80;99.90
12152;DHT22;6139;51.274;7.128;2022-08-19T06:31:26;18.80;99.90
12152;DHT22;6139;51.274;7.128;2022-08-19T06:32:29;18.80;99.90
12152;DHT22;6139;51.274;7.128;2022-08-19T06:33:31;18.80;99.90
12152;DHT22;6139;51.274;7.128;2022-08-19T06:34:34;18.80;99.90
12152;DHT22;6139;51.274;7.128;2022-08-19T06:35:38;18.90;99.90
12152;DHT22;6139;51.274;7.128;2022-08-19T06:36:43;18.90;99.90
12152;DHT22;6139;51.274;7.128;2022-08-19T06:37:45;19.00;99.90
12152;DHT22;6139;51.274;7.128;2022-08-19T06:38:47;19.00;99.90
12152;DHT22;6139;51.274;7.128;2022-08-19T06:39:50;19.00;99.90
12152;DHT22;6139;51.274;7.128;2022-08-19T06:41:00;19.00;99.90
12152;DHT22;6139;51.274;7.128;2022-08-19T06:42:03;19.00;99.90
12152;DHT22;6139;51.274;7.128;2022-08-19T06:43:06;19.00;99.90
12152;DHT22;6139;51.274;7.128;2022-08-19T06:44:09;19.00;99.90
12152;DHT22;6139;51.274;7.128;2022-08-19T06:45:11;19.00;99.90